Latest Weather Observations for Roebourne Airport

IDW60801

Issued at 10:03 am WST Saturday 20 December 2014 (issued every 30 minutes, with the page automatically refreshed every 10 minutes)

About weather observations | Map of weather stations | Latest weather observations for WA | Other Formats
Station Details ID: 004090 Name: ROEBOURNE AERO Lat: -20.76 Lon: 117.16 Height: 10.7 m
Data from the previous 72 hours. | See also: Recent months at Roebourne Airport
Date/Time
WST
Temp
°C
App
Temp
°C
Dew
Point
Rel
Hum
%
Delta-T
°C
Wind Press
QNH
hPa
Press
MSL
hPa
Rain
since 9 am
mm
Dir
 
Spd
km/h
Gust
km/h
Spd
kts
Gust
kts
20/10:00am 35.4 32.7 13.5 26 13.4 NW 20 28 11 15 1009.9 1009.9 0.0
20/09:30am 34.6 33.0 12.9 27 13.1 W 13 19 7 10 1010.2 1010.2 0.0
20/09:00am 34.4 32.6 10.9 24 13.8 NNW 11 19 6 10 1010.3 1010.3 0.0
20/08:30am 33.0 30.9 9.7 24 13.3 NW 11 17 6 9 1010.4 1010.4 0.0
20/08:00am 32.1 30.8 11.3 28 12.1 WSW 9 17 5 9 1010.5 1010.5 0.0
20/07:30am 30.9 29.9 12.3 32 11.0 WSW 9 13 5 7 1010.3 1010.3 0.0
20/07:00am 29.2 29.1 15.0 42 8.7 W 9 13 5 7 1010.2 1010.2 0.0
20/06:30am 26.6 27.8 18.2 60 5.3 WNW 9 11 5 6 1009.9 1009.9 0.0
20/06:00am 24.7 26.2 18.9 70 3.7 WNW 9 11 5 6 1009.7 1009.7 0.0
20/05:30am 23.6 25.5 18.5 73 3.2 W 6 7 3 4 1009.6 1009.6 0.0
20/05:00am 24.5 26.5 19.1 72 3.5 W 7 9 4 5 1009.3 1009.3 0.0
20/04:30am 24.5 26.2 19.3 73 3.3 WNW 9 11 5 6 1009.1 1009.1 0.0
20/04:00am 24.6 26.1 19.7 74 3.2 WNW 11 13 6 7 1009.1 1009.1 0.0
20/03:30am 24.8 26.6 19.6 73 3.3 W 9 11 5 6 1009.1 1009.1 0.0
20/03:00am 24.8 27.0 20.3 76 2.9 WSW 9 11 5 6 1009.0 1009.0 0.0
20/02:30am 24.4 26.7 19.5 74 3.2 SW 6 7 3 4 1009.2 1009.2 0.0
20/02:00am 25.3 27.8 20.3 74 3.3 WSW 7 9 4 5 1009.1 1009.1 0.0
20/01:30am 25.7 27.3 20.7 74 3.3 WSW 13 15 7 8 1009.3 1009.3 0.0
20/01:00am 25.9 27.5 20.7 73 3.4 WSW 13 15 7 8 1009.8 1009.8 0.0
20/12:30am 26.1 28.5 20.9 73 3.4 WSW 9 13 5 7 1010.3 1010.3 0.0
20/12:00am 26.3 28.6 21.3 74 3.3 WSW 11 15 6 8 1010.7 1010.7 0.0
 
Date/Time
WST
Temp
°C
App
Temp
°C
Dew
Point
Rel
Hum
%
Delta-T
°C
Wind Press
QNH
hPa
Press
MSL
hPa
Rain
since 9 am
mm
Dir
 
Spd
km/h
Gust
km/h
Spd
kts
Gust
kts
19/11:30pm 26.5 28.5 21.5 74 3.3 WSW 13 17 7 9 1011.1 1011.1 0.0
19/11:00pm 26.7 27.4 21.2 72 3.6 W 19 24 10 13 1011.4 1011.4 0.0
19/10:30pm 26.9 27.8 21.6 72 3.5 W 19 26 10 14 1011.6 1011.6 0.0
19/10:00pm 27.1 27.8 21.6 72 3.7 W 20 24 11 13 1011.5 1011.5 0.0
19/09:30pm 27.4 27.9 21.9 72 3.7 W 22 28 12 15 1011.2 1011.2 0.0
19/09:00pm 27.5 28.5 22.2 73 3.6 WNW 20 26 11 14 1010.9 1010.9 0.0
19/08:30pm 27.6 28.7 21.9 71 3.8 WNW 19 20 10 11 1010.6 1010.6 0.0
19/08:00pm 27.9 29.2 21.7 69 4.2 NW 17 24 9 13 1010.5 1010.5 0.0
19/07:30pm 28.3 29.0 21.6 67 4.5 NW 20 26 11 14 1010.1 1010.1 0.0
19/07:00pm 29.0 29.6 21.0 62 5.3 NW 19 28 10 15 1009.9 1009.9 0.0
19/06:30pm 30.2 29.5 20.2 55 6.6 NW 24 32 13 17 1009.5 1009.5 0.0
19/06:00pm 30.8 28.4 18.2 47 8.1 NW 28 33 15 18 1009.2 1009.2 0.0
19/05:30pm 31.6 29.5 18.9 47 8.3 NW 28 33 15 18 1009.0 1009.0 0.0
19/05:00pm 32.5 30.3 18.7 44 9.0 N 28 35 15 19 1008.9 1008.9 0.0
19/04:30pm 33.2 29.7 17.4 39 10.1 N 32 39 17 21 1008.8 1008.8 0.0
19/04:00pm 34.2 30.9 17.0 36 11.0 N 30 37 16 20 1008.4 1008.4 0.0
19/03:30pm 34.7 32.7 19.1 39 10.3 N 28 33 15 18 1008.4 1008.4 0.0
19/03:00pm 36.2 34.8 18.7 35 11.5 NNW 24 33 13 18 1008.5 1008.5 0.0
19/02:30pm 35.5 34.0 18.6 37 11.1 N 24 35 13 19 1008.7 1008.7 0.0
19/02:00pm 35.8 33.8 16.5 31 12.3 NNW 22 30 12 16 1008.8 1008.8 0.0
19/01:30pm 35.0 32.9 18.1 36 11.0 N 26 33 14 18 1009.1 1009.1 0.0
19/01:00pm 35.3 33.0 16.6 33 11.9 N 24 32 13 17 1009.3 1009.3 0.0
19/12:30pm 34.8 34.5 21.1 44 9.3 N 24 32 13 17 1009.5 1009.5 0.0
19/12:00pm 35.1 34.9 20.6 42 9.8 NNW 22 30 12 16 1009.6 1009.6 0.0
19/11:30am 36.2 35.2 21.2 41 10.2 N 28 35 15 19 1009.6 1009.6 0.0
19/11:00am 35.9 36.6 18.9 36 11.2 NW 13 19 7 10 1009.9 1009.9 0.0
19/10:30am 36.0 37.2 19.9 39 10.8 NW 13 20 7 11 1010.1 1010.1 0.0
19/10:00am 34.1 35.2 19.7 42 9.6 WNW 13 26 7 14 1010.4 1010.4 0.0
19/09:30am 33.1 34.0 20.9 48 8.2 W 17 26 9 14 1010.4 1010.4 0.0
19/09:00am 32.6 34.2 21.5 52 7.5 W 15 22 8 12 1010.4 1010.4 0.0
19/08:30am 31.8 34.0 21.9 55 6.7 WNW 13 19 7 10 1010.6 1010.6 0.0
19/08:00am 30.4 31.8 21.8 60 5.8 WNW 17 22 9 12 1010.2 1010.2 0.0
19/07:30am 29.3 31.4 22.5 67 4.6 WNW 15 19 8 10 1010.0 1010.0 0.0
19/07:00am 28.1 30.0 22.8 73 3.6 WNW 17 20 9 11 1009.7 1009.7 0.0
19/06:30am 27.0 29.7 22.8 78 2.8 NW 13 15 7 8 1009.4 1009.4 0.0
19/06:00am 25.8 28.8 22.7 83 2.1 WNW 11 15 6 8 1008.8 1008.8 0.0
19/05:30am 25.3 27.7 22.2 83 2.1 WNW 13 15 7 8 1008.5 1008.5 0.0
19/05:00am 25.4 28.2 22.3 83 2.1 W 11 11 6 6 1008.4 1008.4 0.0
19/04:30am 25.8 28.4 22.7 83 2.1 WNW 13 15 7 8 1008.3 1008.3 0.0
19/04:00am 25.8 29.3 22.9 84 2.0 WNW 9 11 5 6 1008.2 1008.2 0.0
19/03:30am 25.7 28.8 22.8 84 2.0 NW 11 13 6 7 1008.2 1008.2 0.0
19/03:00am 26.1 29.3 23.0 83 2.1 NW 11 13 6 7 1008.1 1008.1 0.0
19/02:30am 26.0 29.3 22.5 81 2.4 NW 9 13 5 7 1008.0 1008.0 0.0
19/02:00am 26.1 29.1 22.6 81 2.4 NW 11 13 6 7 1008.1 1008.1 0.0
19/01:30am 26.4 28.7 22.7 80 2.5 NW 15 19 8 10 1007.9 1007.9 0.0
19/01:00am 26.5 29.1 22.6 79 2.6 WNW 13 19 7 10 1007.9 1007.9 0.0
19/12:30am 26.7 29.2 22.5 78 2.8 WNW 13 15 7 8 1008.2 1008.2 0.0
19/12:00am 26.7 29.1 22.3 77 3.0 NW 13 17 7 9 1008.6 1008.6 0.0
 
Date/Time
WST
Temp
°C
App
Temp
°C
Dew
Point
Rel
Hum
%
Delta-T
°C
Wind Press
QNH
hPa
Press
MSL
hPa
Rain
since 9 am
mm
Dir
 
Spd
km/h
Gust
km/h
Spd
kts
Gust
kts
18/11:30pm 27.0 29.9 22.4 76 3.1 NW 11 15 6 8 1008.8 1008.8 0.0
18/11:00pm 27.3 29.8 22.5 75 3.2 NW 13 17 7 9 1008.7 1008.7 0.0
18/10:30pm 27.5 29.5 22.2 73 3.6 WNW 15 20 8 11 1008.5 1008.5 0.0
18/10:00pm 27.7 29.7 22.2 72 3.7 WNW 15 20 8 11 1008.3 1008.3 0.0
18/09:30pm 27.9 29.1 22.1 70 3.9 WNW 19 26 10 14 1007.9 1007.9 0.0
18/09:00pm 28.3 29.2 21.6 67 4.5 WNW 19 26 10 14 1007.7 1007.7 0.0
18/08:30pm 28.8 29.2 21.0 62 5.2 WNW 20 26 11 14 1007.1 1007.1 0.0
18/08:00pm 29.2 29.5 20.4 59 5.8 WNW 19 28 10 15 1006.9 1006.9 0.0
18/07:30pm 29.4 29.3 21.4 62 5.4 WNW 24 32 13 17 1006.3 1006.3 0.0
18/07:00pm 30.0 29.5 21.4 60 5.8 WNW 26 32 14 17 1006.0 1006.0 0.0
18/06:30pm 31.4 31.4 21.6 56 6.6 NW 24 33 13 18 1005.6 1005.6 0.0
18/06:00pm 32.8 32.0 20.0 47 8.5 WNW 24 33 13 18 1005.0 1005.0 0.0
18/05:30pm 33.5 32.2 20.6 46 8.6 WNW 28 35 15 19 1004.8 1004.8 0.0
18/05:00pm 34.3 31.5 18.3 38 10.4 NW 30 39 16 21 1004.7 1004.7 0.0
18/04:30pm 35.7 32.4 17.9 35 11.6 NW 32 37 17 20 1004.5 1004.5 0.0
18/04:00pm 36.2 33.3 19.2 37 11.3 NW 33 41 18 22 1004.4 1004.4 0.0
18/03:30pm 38.2 34.5 17.0 28 13.7 NNW 32 39 17 21 1004.3 1004.2 0.0
18/03:00pm 39.2 34.3 13.6 22 15.9 NNW 32 39 17 21 1004.6 1004.6 0.0
18/02:30pm 40.0 35.6 14.2 21 16.2 NW 30 37 16 20 1004.6 1004.6 0.0
18/02:00pm 40.3 38.4 19.4 30 14.1 NW 28 41 15 22 1004.8 1004.8 0.0
18/01:30pm 39.5 37.0 18.1 28 14.1 NW 28 37 15 20 1005.0 1005.0 0.0
18/01:00pm 39.9 38.5 19.6 31 13.7 WNW 26 35 14 19 1005.3 1005.3 0.0
18/12:30pm 38.8 37.7 18.6 30 13.4 NW 22 28 12 15 1005.6 1005.6 0.0
18/12:00pm 39.4 38.7 19.6 31 13.3 WNW 22 30 12 16 1005.8 1005.8 0.0
18/11:30am 37.7 37.4 19.1 33 12.3 WNW 19 28 10 15 1006.3 1006.3 0.0
18/11:00am 36.9 37.7 19.8 36 11.5 NW 15 22 8 12 1006.5 1006.5 0.0
18/10:30am 36.1 36.7 19.5 37 11.0 W 15 24 8 13 1006.8 1006.8 0.0
18/10:00am 35.9 37.4 19.8 39 10.8 WNW 11 24 6 13 1007.1 1007.1 0.0
18/09:30am 34.0 35.2 20.7 45 8.9 WNW 15 26 8 14 1007.2 1007.2 0.0
18/09:00am 32.9 33.6 20.4 47 8.3 W 17 22 9 12 1007.4 1007.4 0.0
18/08:30am 32.2 32.5 19.5 47 8.3 W 17 24 9 13 1007.3 1007.3 0.0
18/08:00am 30.6 30.6 20.2 53 6.9 W 20 24 11 13 1007.2 1007.2 0.0
18/07:30am 29.1 29.9 21.8 64 4.9 W 20 26 11 14 1007.1 1007.1 0.0
18/07:00am 27.9 29.3 22.6 73 3.6 W 19 22 10 12 1007.1 1007.1 0.0
18/06:30am 27.0 28.9 22.8 78 2.8 W 17 24 9 13 1006.9 1006.9 0.0
18/06:00am 25.8 28.1 22.7 83 2.1 W 15 20 8 11 1006.4 1006.4 0.0
18/05:30am 25.4 27.7 22.7 85 1.8 WNW 15 20 8 11 1006.2 1006.2 0.0
18/05:00am 25.5 27.4 22.8 85 1.8 W 17 22 9 12 1005.8 1005.8 0.0
18/04:30am 25.4 27.5 22.5 84 2.0 WNW 15 20 8 11 1005.7 1005.7 0.0
18/04:00am 25.5 27.6 22.4 83 2.1 WNW 15 19 8 10 1005.5 1005.5 0.0
18/03:30am 25.6 28.0 22.3 82 2.2 WNW 13 19 7 10 1005.4 1005.4 0.0
18/03:00am 25.8 27.5 22.3 81 2.4 WNW 17 20 9 11 1005.5 1005.5 0.0
18/02:30am 25.9 27.4 22.0 79 2.6 WNW 17 20 9 11 1005.5 1005.5 0.0
18/02:00am 26.0 27.4 21.9 78 2.7 WNW 17 20 9 11 1005.6 1005.6 0.0
18/01:30am 26.2 27.9 21.6 76 3.1 W 15 20 8 11 1005.7 1005.7 0.0
18/01:00am 26.5 28.2 21.7 75 3.2 WNW 15 20 8 11 1006.1 1006.1 0.0
18/12:30am 26.6 27.2 21.1 72 3.6 NW 19 24 10 13 1006.1 1006.1 0.0
18/12:00am 26.9 27.6 21.2 71 3.8 WNW 19 26 10 14 1006.4 1006.4 0.0
 
Date/Time
WST
Temp
°C
App
Temp
°C
Dew
Point
Rel
Hum
%
Delta-T
°C
Wind Press
QNH
hPa
Press
MSL
hPa
Rain
since 9 am
mm
Dir
 
Spd
km/h
Gust
km/h
Spd
kts
Gust
kts
17/11:30pm 27.1 27.8 21.2 70 3.9 NW 19 24 10 13 1006.5 1006.5 0.0
17/11:00pm 27.2 28.7 21.2 69 4.0 WNW 15 19 8 10 1006.7 1006.7 0.0
17/10:30pm 27.3 28.3 21.1 69 4.1 NW 17 24 9 13 1006.6 1006.6 0.0
17/10:00pm 27.4 28.0 21.0 68 4.2 NW 19 22 10 12 1006.5 1006.5 0.0
17/09:30pm 27.6 28.1 20.9 67 4.4 NW 19 24 10 13 1006.2 1006.2 0.0
17/09:00pm 27.9 28.3 20.7 65 4.8 NW 19 24 10 13 1006.0 1006.0 0.0
17/08:30pm 28.2 28.5 20.7 63 5.0 NW 20 26 11 14 1005.7 1005.7 0.0
17/08:00pm 28.4 28.4 20.9 64 5.0 WNW 22 32 12 17 1005.2 1005.2 0.0
17/07:30pm 28.5 27.9 21.3 65 4.8 NW 26 33 14 18 1004.5 1004.5 0.0
17/07:00pm 29.0 28.6 21.0 62 5.3 WNW 24 32 13 17 1004.1 1004.0 0.0
17/06:30pm 29.6 27.5 20.5 58 6.0 NW 32 39 17 21 1003.7 1003.6 0.0
17/06:00pm 30.6 28.0 19.9 52 7.1 NW 33 43 18 23 1003.5 1003.4 0.0
17/05:30pm 32.1 29.3 19.0 45 8.6 NW 32 39 17 21 1003.2 1003.1 0.0
17/05:00pm 33.4 29.0 16.7 36 10.6 NW 35 43 19 23 1002.8 1002.7 0.0
17/04:30pm 34.9 30.9 16.2 32 11.8 NW 32 39 17 21 1002.4 1002.3 0.0
17/04:00pm 34.8 30.8 17.5 35 11.2 NW 35 43 19 23 1002.2 1002.1 0.0
17/03:30pm 35.2 31.5 18.3 36 11.0 NW 35 44 19 24 1002.2 1002.1 0.0
17/03:00pm 35.5 32.9 19.8 39 10.5 NW 33 41 18 22 1002.5 1002.4 0.0
17/02:30pm 35.6 33.2 19.9 39 10.5 NW 32 43 17 23 1002.9 1002.8 0.0
17/02:00pm 35.6 33.8 21.5 44 9.6 NW 33 39 18 21 1003.1 1003.0 0.0
17/01:30pm 36.3 35.6 22.5 45 9.5 NW 30 39 16 21 1003.4 1003.3 0.0
17/01:00pm 35.6 34.5 21.8 44 9.5 NNW 30 39 16 21 1003.6 1003.5 0.0
17/12:30pm 36.9 36.8 21.5 41 10.5 WNW 24 37 13 20 1003.8 1003.7 0.0
17/12:00pm 36.0 36.2 21.4 42 10.0 NW 22 33 12 18 1004.1 1004.0 0.0
17/11:30am 36.7 36.9 22.1 43 10.0 NW 24 33 13 18 1004.3 1004.2 0.0
17/11:00am 35.3 35.6 20.4 41 10.0 WNW 19 28 10 15 1004.7 1004.7 0.0
17/10:30am 34.5 35.4 20.8 44 9.2 WNW 17 30 9 16 1004.9 1004.9 0.0

Other Formats:

Comma delimited format used in spreadsheet applications
http://www.bom.gov.au/fwo/IDW60801/IDW60801.94308.axf

JavaScript Object Notation format (JSON) in row-major order
http://www.bom.gov.au/fwo/IDW60801/IDW60801.94308.json